Terminal Aerodrome Forecast
Issued by NWS

Home | Current Version | Previous Version | Text Only | Print | Product List | Glossary On
Versions: 1 2 3 4 5 6 7 8 9 10 11 12 13 14 15 16 17 18 19
000
FTUS43 KDLH 150959 AAA
TAFHIB
TAF AMD
KHIB 150959Z 1510/1606 33012KT P6SM SCT017 BKN040
     FM151200 33011KT 5SM -SN OVC012
     FM151600 34014G18KT P6SM -SN OVC015
     FM152000 33012G20KT P6SM BKN040=

USA.gov is the U.S. government's official web portal to all federal, state and local government web resources and services.